KRST/RST METAR and TAF weather

Enter ICAO airport designator
Station Type Date Time Source
KRST METAR 2022/06/28 14:54 UTC NOAA

KRST 281454Z 25011G18KT 10SM -RA FEW026 FEW046 BKN120 18/13 A3016 RMK AO2 PK WND 24026/1435 RAE05B50 SLP210 P0000 60000 T01780128 53001


Station Type Date Time Source
KRST Decoded METAR 2022/06/28 14:54 UTC NOAA

ROCHESTER INTERNATIONAL AIRPORT , MN, United States (KRST) 43-54N 092-30W 403M
Jun 28, 2022 - 10:54 AM EDT / 2022.06.28 1454 UTC
Wind: from the WSW (250 degrees) at 13 MPH (11 KT) gusting to 21 MPH (18 KT):0
Visibility: 10 mile(s):0
Sky conditions: mostly cloudy
Weather: light rain
Precipitation last hour: A trace
Temperature: 64.0 F (17.8 C)
Dew Point: 55.0 F (12.8 C)
Relative Humidity: 72%
Pressure (altimeter): 30.16 in. Hg (1021 hPa)
Pressure tendency: 0.00 inches (0.1 hPa) higher than three hours ago
ob: KRST 281454Z 25011G18KT 10SM -RA FEW026 FEW046 BKN120 18/13 A3016 RMK AO2 PK WND 24026/1435 RAE05B50 SLP210 P0000 60000 T01780128 53001
cycle: 15

Station Type Date Time Source
KRST TAF 2022/06/28 12:24 UTC NOAA

TAF KRST 281121Z 2812/2912 21012KT P6SM VCSH BKN090
FM282300 26011KT P6SM BKN070
FM290300 34007KT P6SM SCT070

Example: see airport list